createdAt,value
2019-03-12T00:00:40.769Z,99.90
2019-03-12T00:03:10.381Z,99.90
2019-03-12T00:05:40.037Z,99.90
2019-03-12T00:08:09.750Z,99.90
2019-03-12T00:10:39.417Z,99.90
2019-03-12T00:13:09.056Z,99.90
2019-03-12T00:15:38.703Z,99.90
2019-03-12T00:18:08.493Z,99.90
2019-03-12T00:20:38.133Z,99.90
2019-03-12T00:23:07.749Z,99.90
2019-03-12T00:25:37.374Z,99.90
2019-03-12T00:28:07.021Z,99.90
2019-03-12T00:30:36.631Z,99.90
2019-03-12T00:33:06.273Z,99.90
2019-03-12T00:35:35.885Z,99.90
2019-03-12T00:38:05.577Z,99.90
2019-03-12T00:40:54.561Z,99.90
2019-03-12T00:43:24.179Z,99.90
2019-03-12T00:45:53.813Z,99.90
2019-03-12T00:48:23.646Z,99.90
2019-03-12T00:50:53.289Z,99.90
2019-03-12T00:53:22.973Z,99.90
2019-03-12T00:55:52.621Z,99.90
2019-03-12T00:58:22.241Z,99.90
2019-03-12T01:00:51.880Z,99.90
2019-03-12T01:03:21.533Z,99.90
2019-03-12T01:05:51.140Z,99.90
2019-03-12T01:08:20.838Z,99.90
2019-03-12T01:10:50.452Z,99.90
2019-03-12T01:13:20.472Z,99.90
2019-03-12T01:15:50.262Z,99.90
2019-03-12T01:18:19.979Z,99.90
2019-03-12T01:20:49.617Z,99.90
2019-03-12T01:23:19.252Z,99.90
2019-03-12T01:25:48.870Z,99.90
2019-03-12T01:28:18.683Z,99.90
2019-03-12T01:30:48.301Z,99.90
2019-03-12T01:33:17.950Z,99.90
2019-03-12T01:35:47.643Z,99.90
2019-03-12T01:38:17.457Z,99.90
2019-03-12T01:40:47.075Z,99.90
2019-03-12T01:43:16.729Z,99.90
2019-03-12T01:45:46.337Z,99.90
2019-03-12T01:48:15.985Z,99.90
2019-03-12T01:50:45.597Z,99.90
2019-03-12T01:53:15.249Z,99.90
2019-03-12T01:55:44.864Z,99.90
2019-03-12T01:58:14.839Z,99.90
2019-03-12T02:00:44.413Z,99.90
2019-03-12T02:03:14.048Z,99.90
2019-03-12T02:05:43.662Z,99.90
2019-03-12T02:08:13.301Z,99.90
2019-03-12T02:10:42.916Z,99.90
2019-03-12T02:13:12.553Z,99.90
2019-03-12T02:15:42.176Z,99.90
2019-03-12T02:18:12.010Z,99.90
2019-03-12T02:20:41.617Z,99.90
2019-03-12T02:23:11.258Z,99.90
2019-03-12T02:25:40.897Z,99.90
2019-03-12T02:28:10.515Z,99.90
2019-03-12T02:30:40.141Z,99.90
2019-03-12T02:33:09.789Z,99.90
2019-03-12T02:35:39.389Z,99.90
2019-03-12T02:38:09.055Z,99.90
2019-03-12T02:40:38.665Z,99.90
2019-03-12T02:43:08.320Z,99.90
2019-03-12T02:45:37.995Z,99.90
2019-03-12T02:48:07.630Z,99.90
2019-03-12T02:50:37.266Z,99.90
2019-03-12T02:53:06.880Z,99.90
2019-03-12T02:55:36.505Z,99.90
2019-03-12T02:58:06.292Z,99.90
2019-03-12T03:00:35.984Z,99.90
2019-03-12T03:03:05.620Z,99.90
2019-03-12T03:05:36.882Z,99.90
2019-03-12T03:08:10.828Z,99.90
2019-03-12T03:10:40.454Z,99.90
2019-03-12T03:13:10.092Z,99.90
2019-03-12T03:15:41.349Z,99.90
2019-03-12T03:18:11.092Z,99.90
2019-03-12T03:20:40.703Z,99.90
2019-03-12T03:23:10.351Z,99.90
2019-03-12T03:25:39.967Z,99.90
2019-03-12T03:28:09.613Z,99.90
2019-03-12T03:30:39.294Z,99.90
2019-03-12T03:33:08.935Z,99.90
2019-03-12T03:35:38.545Z,99.90
2019-03-12T03:38:08.242Z,99.90
2019-03-12T03:40:37.940Z,99.90
2019-03-12T03:43:07.604Z,99.90
2019-03-12T03:45:37.211Z,99.90
2019-03-12T03:48:06.906Z,99.90
2019-03-12T03:50:36.575Z,99.90
2019-03-12T03:53:06.222Z,99.90
2019-03-12T03:55:35.846Z,99.90
2019-03-12T03:58:05.592Z,99.90
2019-03-12T04:00:35.228Z,99.90
2019-03-12T04:03:04.854Z,99.90
2019-03-12T04:05:34.485Z,99.90
2019-03-12T04:08:04.105Z,99.90
2019-03-12T04:10:33.741Z,99.90
2019-03-12T04:13:03.354Z,99.90
2019-03-12T04:15:33.001Z,99.90
2019-03-12T04:18:02.817Z,99.90
2019-03-12T04:20:32.506Z,99.90
2019-03-12T04:23:02.125Z,99.90
2019-03-12T04:25:31.796Z,99.90
2019-03-12T04:28:01.484Z,99.90
2019-03-12T04:30:31.133Z,99.90
2019-03-12T04:33:00.747Z,99.90
2019-03-12T04:35:32.141Z,99.90
2019-03-12T04:38:01.814Z,99.90
2019-03-12T04:40:31.457Z,99.90
2019-03-12T04:43:01.084Z,99.90
2019-03-12T04:45:30.721Z,99.90
2019-03-12T04:48:00.337Z,99.90
2019-03-12T04:50:29.978Z,99.90
2019-03-12T04:52:59.600Z,99.90
2019-03-12T04:55:29.341Z,99.90
2019-03-12T04:57:59.132Z,99.90
2019-03-12T05:00:28.773Z,99.90
2019-03-12T05:02:58.452Z,99.90
2019-03-12T05:05:28.095Z,99.90
2019-03-12T05:07:57.705Z,99.90
2019-03-12T05:10:27.341Z,99.90
2019-03-12T05:12:56.956Z,99.90
2019-03-12T05:15:26.595Z,99.90
2019-03-12T05:17:56.274Z,99.90
2019-03-12T05:20:25.917Z,99.90
2019-03-12T05:22:55.539Z,99.90
2019-03-12T05:25:25.173Z,99.90
2019-03-12T05:27:54.789Z,99.90
2019-03-12T05:30:24.429Z,99.90
2019-03-12T05:32:54.049Z,99.90
2019-03-12T05:35:23.706Z,99.90
2019-03-12T05:37:53.467Z,99.90
2019-03-12T05:40:23.186Z,99.90
2019-03-12T05:42:52.797Z,99.90
2019-03-12T05:45:22.448Z,99.90
2019-03-12T05:47:52.113Z,99.90
2019-03-12T05:50:22.224Z,99.90
2019-03-12T05:52:53.377Z,99.90
2019-03-12T05:55:23.039Z,99.90
2019-03-12T05:57:52.725Z,99.90
2019-03-12T06:00:24.143Z,99.90
2019-03-12T06:02:53.757Z,99.90
2019-03-12T06:05:23.406Z,99.90
2019-03-12T06:07:55.466Z,99.90
2019-03-12T06:10:24.450Z,99.90
2019-03-12T06:12:54.068Z,99.90
2019-03-12T06:15:23.712Z,99.90
2019-03-12T06:17:53.320Z,99.90
2019-03-12T06:20:24.104Z,99.90
2019-03-12T06:22:53.727Z,99.90
2019-03-12T06:25:23.358Z,99.90
2019-03-12T06:27:52.973Z,99.90
2019-03-12T06:30:25.733Z,99.90
2019-03-12T06:33:11.708Z,99.90
2019-03-12T06:35:45.753Z,99.90
2019-03-12T06:38:25.770Z,99.90
2019-03-12T06:40:59.718Z,99.90
2019-03-12T06:43:30.969Z,99.90
2019-03-12T06:46:02.255Z,99.90
2019-03-12T06:48:38.044Z,99.90
2019-03-12T06:51:24.149Z,99.90
2019-03-12T06:53:55.418Z,99.90
2019-03-12T06:56:29.332Z,99.90
2019-03-12T06:59:03.400Z,99.90
2019-03-12T07:01:34.680Z,99.90
2019-03-12T07:04:06.013Z,99.90
2019-03-12T07:06:43.230Z,99.90
2019-03-12T07:09:20.616Z,99.90
2019-03-12T07:12:00.709Z,99.90
2019-03-12T07:14:46.768Z,99.90
2019-03-12T07:17:34.474Z,99.90
2019-03-12T07:20:17.721Z,99.90
2019-03-12T07:22:51.989Z,99.90
2019-03-12T07:25:38.288Z,99.90
2019-03-12T07:28:27.986Z,99.90
2019-03-12T07:31:17.662Z,99.90
2019-03-12T07:34:06.968Z,99.90
2019-03-12T07:36:47.088Z,99.90
2019-03-12T07:39:27.257Z,99.90
2019-03-12T07:41:58.543Z,99.90
2019-03-12T07:44:46.054Z,99.90
2019-03-12T07:47:35.151Z,99.90
2019-03-12T07:50:01.925Z,99.90
2019-03-12T07:52:33.197Z,99.90
2019-03-12T07:55:04.463Z,99.90
2019-03-12T07:57:44.949Z,99.90
2019-03-12T08:00:25.521Z,99.90
2019-03-12T08:03:02.831Z,99.90
2019-03-12T08:05:36.801Z,94.40
2019-03-12T08:08:17.217Z,95.80
2019-03-12T08:11:03.749Z,91.60
2019-03-12T08:13:44.065Z,91.50
2019-03-12T08:16:24.080Z,89.00
2019-03-12T08:19:07.626Z,85.10
2019-03-12T08:21:38.973Z,81.50
2019-03-12T08:24:22.554Z,81.40
2019-03-12T08:26:59.711Z,84.00
2019-03-12T08:29:30.972Z,84.00
2019-03-12T08:32:17.557Z,80.00
2019-03-12T08:34:48.820Z,77.60
2019-03-12T08:37:20.101Z,82.30
2019-03-12T08:40:07.968Z,74.60
2019-03-12T08:42:39.252Z,78.60
2019-03-12T08:45:26.531Z,73.90
2019-03-12T08:48:00.365Z,72.60
2019-03-12T08:50:34.428Z,72.60
2019-03-12T08:53:08.348Z,71.70
2019-03-12T08:55:39.613Z,70.70
2019-03-12T08:58:10.898Z,71.10
2019-03-12T09:00:42.152Z,71.30
2019-03-12T09:03:30.185Z,70.60
2019-03-12T09:06:10.485Z,69.70
2019-03-12T09:08:56.748Z,66.40
2019-03-12T09:11:28.004Z,65.40
2019-03-12T09:14:17.172Z,64.80
2019-03-12T09:17:06.725Z,65.40
2019-03-12T09:19:54.448Z,63.90
2019-03-12T09:22:41.920Z,62.70
2019-03-12T09:25:19.409Z,63.00
2019-03-12T09:28:13.733Z,62.20
2019-03-12T09:31:01.244Z,62.00
2019-03-12T09:33:32.537Z,62.20
2019-03-12T09:36:19.945Z,60.00
2019-03-12T09:38:54.248Z,58.50
2019-03-12T09:41:31.505Z,57.90
2019-03-12T09:44:02.793Z,58.30
2019-03-12T09:46:51.945Z,58.10
2019-03-12T09:49:27.586Z,57.30
2019-03-12T09:52:13.973Z,56.80
2019-03-12T09:54:45.271Z,57.80
2019-03-12T09:57:19.270Z,55.30
2019-03-12T09:59:53.219Z,55.00
2019-03-12T10:02:27.314Z,54.30
2019-03-12T10:04:58.573Z,54.50
2019-03-12T10:07:29.925Z,52.90
2019-03-12T10:10:07.000Z,54.60
2019-03-12T10:12:38.273Z,54.00
2019-03-12T10:15:16.820Z,52.10
2019-03-12T10:17:50.762Z,51.30
2019-03-12T10:20:38.273Z,50.80
2019-03-12T10:23:09.553Z,50.80
2019-03-12T10:25:40.834Z,51.20
2019-03-12T10:28:12.100Z,51.00
2019-03-12T10:30:46.113Z,49.00
2019-03-12T10:33:17.489Z,49.80
2019-03-12T10:35:54.792Z,47.40
2019-03-12T10:39:02.636Z,47.90
2019-03-12T10:41:33.926Z,48.20
2019-03-12T10:44:05.193Z,46.50
2019-03-12T10:46:42.660Z,48.20
2019-03-12T10:49:12.362Z,47.10
2019-03-12T10:51:42.018Z,47.20
2019-03-12T10:54:11.638Z,46.60
2019-03-12T10:56:41.289Z,48.10
2019-03-12T10:59:10.909Z,46.70
2019-03-12T11:01:40.561Z,47.40
2019-03-12T11:04:10.181Z,46.30
2019-03-12T11:06:39.828Z,46.70
2019-03-12T11:09:09.516Z,45.60
2019-03-12T11:11:42.085Z,47.10
2019-03-12T11:14:11.710Z,47.60
2019-03-12T11:16:41.369Z,47.00
2019-03-12T11:19:10.992Z,45.80
2019-03-12T11:21:40.709Z,45.40
2019-03-12T11:24:10.337Z,45.40
2019-03-12T11:26:39.983Z,46.40
2019-03-12T11:29:09.602Z,46.80
2019-03-12T11:31:39.245Z,43.70
2019-03-12T11:34:08.893Z,43.80
2019-03-12T11:36:38.572Z,44.20
2019-03-12T11:39:08.432Z,43.10
2019-03-12T11:41:38.078Z,42.80
2019-03-12T11:44:07.707Z,42.50
2019-03-12T11:46:44.440Z,42.60
2019-03-12T11:49:08.597Z,43.60
2019-03-12T11:51:38.247Z,42.00
2019-03-12T11:54:08.401Z,41.20
2019-03-12T11:56:38.149Z,42.50
2019-03-12T11:59:07.756Z,41.00
2019-03-12T12:01:37.537Z,40.30
2019-03-12T12:04:07.161Z,41.60
2019-03-12T12:06:42.262Z,39.60
2019-03-12T12:09:08.570Z,39.10
2019-03-12T12:11:38.206Z,40.30
2019-03-12T12:14:07.976Z,41.00
2019-03-12T12:16:37.621Z,40.80
2019-03-12T12:19:07.317Z,41.20
2019-03-12T12:21:37.033Z,43.90
2019-03-12T12:24:06.664Z,41.50
2019-03-12T12:26:36.302Z,39.90
2019-03-12T12:29:05.927Z,42.30
2019-03-12T12:31:35.573Z,41.20
2019-03-12T12:34:05.321Z,41.60
2019-03-12T12:36:34.978Z,42.10
2019-03-12T12:39:06.742Z,41.30
2019-03-12T12:41:36.389Z,41.70
2019-03-12T12:44:06.226Z,42.90
2019-03-12T12:46:36.044Z,44.20
2019-03-12T12:49:05.682Z,43.30
2019-03-12T12:51:35.404Z,45.30
2019-03-12T12:54:05.124Z,44.70
2019-03-12T12:56:34.779Z,43.70
2019-03-12T12:59:04.401Z,44.80
2019-03-12T13:01:34.058Z,43.20
2019-03-12T13:04:03.925Z,45.50
2019-03-12T13:06:33.596Z,45.90
2019-03-12T13:09:04.660Z,44.80
2019-03-12T13:11:34.297Z,44.30
2019-03-12T13:14:04.086Z,44.10
2019-03-12T13:16:33.782Z,45.50
2019-03-12T13:19:03.501Z,42.90
2019-03-12T13:21:33.124Z,43.60
2019-03-12T13:24:02.773Z,43.80
2019-03-12T13:26:32.401Z,43.60
2019-03-12T13:29:02.057Z,41.60
2019-03-12T13:31:31.720Z,42.50
2019-03-12T13:34:02.004Z,43.30
2019-03-12T13:36:31.721Z,43.60
2019-03-12T13:39:01.390Z,43.10
2019-03-12T13:41:31.088Z,41.50
2019-03-12T13:44:00.789Z,40.70
2019-03-12T13:46:30.511Z,41.90
2019-03-12T13:49:00.401Z,43.30
2019-03-12T13:51:30.027Z,43.20
2019-03-12T13:53:59.910Z,42.00
2019-03-12T13:56:29.536Z,41.80
2019-03-12T13:58:59.179Z,42.40
2019-03-12T14:01:28.796Z,41.90
2019-03-12T14:04:10.017Z,42.70
2019-03-12T14:06:29.753Z,43.50
2019-03-12T14:08:59.392Z,43.70
2019-03-12T14:11:29.013Z,44.40
2019-03-12T14:13:58.718Z,45.90
2019-03-12T14:16:28.418Z,47.60
2019-03-12T14:18:58.059Z,49.90
2019-03-12T14:21:27.765Z,48.90
2019-03-12T14:24:00.205Z,49.70
2019-03-12T14:26:29.997Z,48.70
2019-03-12T14:28:59.641Z,47.30
2019-03-12T14:31:29.601Z,46.20
2019-03-12T14:33:59.348Z,45.90
2019-03-12T14:36:29.307Z,44.80
2019-03-12T14:38:58.969Z,46.40
2019-03-12T14:41:28.581Z,47.70
2019-03-12T14:43:58.403Z,47.70
2019-03-12T14:46:28.196Z,46.40
2019-03-12T14:48:57.939Z,45.50
2019-03-12T14:51:38.856Z,45.40
2019-03-12T14:54:14.700Z,44.70
2019-03-12T14:56:44.328Z,46.00
2019-03-12T14:59:13.974Z,45.60
2019-03-12T15:01:43.665Z,46.30
2019-03-12T15:04:15.006Z,45.50
2019-03-12T15:06:44.969Z,45.30
2019-03-12T15:09:15.349Z,45.60
2019-03-12T15:11:45.134Z,45.10
2019-03-12T15:14:14.930Z,45.40
2019-03-12T15:16:44.549Z,45.90
2019-03-12T15:19:14.205Z,45.60
2019-03-12T15:21:43.829Z,45.50
2019-03-12T15:24:13.472Z,45.70
2019-03-12T15:26:43.105Z,46.20
2019-03-12T15:29:12.746Z,45.70
2019-03-12T15:31:42.366Z,45.80
2019-03-12T15:34:12.112Z,46.10
2019-03-12T15:36:45.114Z,46.50
2019-03-12T15:39:13.345Z,46.30
2019-03-12T15:41:42.961Z,46.10
2019-03-12T15:44:12.790Z,46.80
2019-03-12T15:46:42.488Z,46.90
2019-03-12T15:49:12.137Z,46.40
2019-03-12T15:51:41.766Z,47.00
2019-03-12T15:54:11.525Z,47.50
2019-03-12T15:56:41.225Z,47.30
2019-03-12T15:59:10.873Z,47.00
2019-03-12T16:01:40.514Z,47.20
2019-03-12T16:04:10.257Z,47.40
2019-03-12T16:06:39.879Z,47.00
2019-03-12T16:09:09.864Z,46.00
2019-03-12T16:11:39.494Z,46.60
2019-03-12T16:14:09.302Z,46.50
2019-03-12T16:16:38.925Z,46.80
2019-03-12T16:19:08.569Z,47.70
2019-03-12T16:21:40.363Z,47.70
2019-03-12T16:24:11.069Z,47.50
2019-03-12T16:26:40.693Z,47.70
2019-03-12T16:29:10.333Z,47.90
2019-03-12T16:31:39.952Z,48.40
2019-03-12T16:34:11.138Z,46.90
2019-03-12T16:36:40.756Z,50.20
2019-03-12T16:39:10.480Z,54.10
2019-03-12T16:41:40.102Z,56.10
2019-03-12T16:44:09.798Z,57.30
2019-03-12T16:46:39.480Z,58.00
2019-03-12T16:49:09.133Z,58.20
2019-03-12T16:51:38.792Z,59.80
2019-03-12T16:54:08.495Z,65.30
2019-03-12T16:56:45.177Z,67.20
2019-03-12T16:59:09.374Z,66.30
2019-03-12T17:01:39.012Z,68.20
2019-03-12T17:04:08.835Z,73.70
2019-03-12T17:06:38.482Z,80.80
2019-03-12T17:09:09.240Z,90.30
2019-03-12T17:11:38.897Z,97.60
2019-03-12T17:14:08.630Z,98.90
2019-03-12T17:16:38.274Z,98.30
2019-03-12T17:19:07.888Z,96.40
2019-03-12T17:21:37.532Z,94.50
2019-03-12T17:24:07.222Z,94.80
2019-03-12T17:26:36.861Z,96.90
2019-03-12T17:29:06.479Z,90.90
2019-03-12T17:31:36.117Z,91.70
2019-03-12T17:34:05.729Z,87.20
2019-03-12T17:36:35.369Z,88.60
2019-03-12T17:39:06.425Z,93.20
2019-03-12T17:41:36.073Z,96.90
2019-03-12T17:44:05.742Z,95.70
2019-03-12T17:46:35.395Z,96.10
2019-03-12T17:49:05.068Z,97.80
2019-03-12T17:51:34.712Z,99.90
2019-03-12T17:54:04.393Z,99.90
2019-03-12T17:56:34.168Z,99.90
2019-03-12T17:59:03.777Z,97.80
2019-03-12T18:01:33.424Z,99.40
2019-03-12T18:04:03.105Z,99.90
2019-03-12T18:06:35.081Z,99.90
2019-03-12T18:09:08.550Z,99.90
2019-03-12T18:11:37.792Z,99.90
2019-03-12T18:14:10.597Z,99.90
2019-03-12T18:16:41.500Z,99.90
2019-03-12T18:19:11.666Z,99.90
2019-03-12T18:21:41.384Z,99.90
2019-03-12T18:24:11.247Z,99.90
2019-03-12T18:26:40.869Z,99.90
2019-03-12T18:29:10.481Z,99.90
2019-03-12T18:31:40.126Z,99.90
2019-03-12T18:34:10.168Z,99.90
2019-03-12T18:36:39.893Z,99.90
2019-03-12T18:39:10.399Z,99.90
2019-03-12T18:41:40.039Z,99.90
2019-03-12T18:44:11.241Z,99.90
2019-03-12T18:46:43.247Z,99.90
2019-03-12T18:49:12.228Z,99.90
2019-03-12T18:51:41.874Z,99.90
2019-03-12T18:54:11.617Z,99.90
2019-03-12T18:56:42.119Z,99.90
2019-03-12T18:59:11.845Z,99.90
2019-03-12T19:01:41.493Z,99.90
2019-03-12T19:04:11.272Z,99.90
2019-03-12T19:06:41.024Z,99.90
2019-03-12T19:09:10.713Z,99.90
2019-03-12T19:11:42.164Z,99.90
2019-03-12T19:14:12.014Z,99.90
2019-03-12T19:16:42.059Z,99.90
2019-03-12T19:19:16.961Z,99.90
2019-03-12T19:21:46.775Z,99.90
2019-03-12T19:24:17.859Z,99.90
2019-03-12T19:26:47.553Z,99.90
2019-03-12T19:29:17.261Z,99.90
2019-03-12T19:31:54.413Z,99.90
2019-03-12T19:34:25.942Z,99.90
2019-03-12T19:36:55.627Z,99.90
2019-03-12T19:39:25.293Z,99.90
2019-03-12T19:41:54.950Z,99.90
2019-03-12T19:44:24.734Z,99.90
2019-03-12T19:46:54.310Z,99.90
2019-03-12T19:49:24.059Z,99.90
2019-03-12T19:51:53.684Z,99.90
2019-03-12T19:54:23.501Z,99.90
2019-03-12T19:56:53.119Z,99.90
2019-03-12T19:59:23.028Z,99.90
2019-03-12T20:01:55.348Z,99.90
2019-03-12T20:04:26.668Z,99.90
2019-03-12T20:06:56.268Z,99.90
2019-03-12T20:09:31.666Z,99.90
2019-03-12T20:12:10.226Z,99.90
2019-03-12T20:15:16.368Z,99.90
2019-03-12T20:17:57.860Z,99.90
2019-03-12T20:20:45.748Z,99.90
2019-03-12T20:23:39.394Z,99.90
2019-03-12T20:26:34.755Z,99.90
2019-03-12T20:29:39.098Z,99.90
2019-03-12T20:32:27.052Z,99.90
2019-03-12T20:35:27.905Z,99.90
2019-03-12T20:38:19.761Z,99.90
2019-03-12T20:41:07.470Z,99.90
2019-03-12T20:43:56.866Z,99.90
2019-03-12T20:46:44.649Z,99.90
2019-03-12T20:49:47.827Z,99.90
2019-03-12T20:52:49.423Z,99.90
2019-03-12T20:55:55.244Z,99.90
2019-03-12T20:59:01.169Z,99.90
2019-03-12T21:01:34.033Z,99.90
2019-03-12T21:04:40.556Z,99.90
2019-03-12T21:07:13.245Z,99.90
2019-03-12T21:10:02.725Z,99.90
2019-03-12T21:12:35.621Z,99.90
2019-03-12T21:15:41.717Z,99.90
2019-03-12T21:18:41.790Z,99.90
2019-03-12T21:21:49.449Z,99.90
2019-03-12T21:24:25.377Z,99.90
2019-03-12T21:27:10.114Z,99.90
2019-03-12T21:29:45.800Z,99.90
2019-03-12T21:32:16.961Z,99.90
2019-03-12T21:34:47.199Z,95.20
2019-03-12T21:37:16.894Z,87.40
2019-03-12T21:39:55.400Z,70.60
2019-03-12T21:42:18.009Z,63.30
2019-03-12T21:44:47.809Z,60.30
2019-03-12T21:47:17.496Z,59.30
2019-03-12T21:49:47.145Z,58.30
2019-03-12T21:52:16.761Z,57.80
2019-03-12T21:54:46.397Z,57.80
2019-03-12T21:57:16.085Z,57.60
2019-03-12T21:59:45.796Z,57.60
2019-03-12T22:02:15.412Z,57.40
2019-03-12T22:04:45.096Z,57.70
2019-03-12T22:07:14.789Z,57.80
2019-03-12T22:09:44.425Z,57.80
2019-03-12T22:12:14.045Z,58.60
2019-03-12T22:14:43.694Z,58.50
2019-03-12T22:17:13.311Z,58.90
2019-03-12T22:19:43.023Z,59.00
2019-03-12T22:22:20.325Z,58.70
2019-03-12T22:24:50.132Z,58.60
2019-03-12T22:27:19.749Z,59.40
2019-03-12T22:29:49.384Z,59.10
2019-03-12T22:32:19.000Z,59.00
2019-03-12T22:34:48.661Z,59.20
2019-03-12T22:37:18.281Z,59.00
2019-03-12T22:39:47.920Z,59.40
2019-03-12T22:42:20.281Z,59.10
2019-03-12T22:44:50.050Z,59.10
2019-03-12T22:47:19.669Z,59.40
2019-03-12T22:49:49.308Z,59.40
2019-03-12T22:52:18.930Z,59.50
2019-03-12T22:54:48.581Z,59.40
2019-03-12T22:57:18.201Z,59.10
2019-03-12T22:59:47.936Z,59.50
2019-03-12T23:02:17.736Z,59.50
2019-03-12T23:04:47.418Z,59.30
2019-03-12T23:07:17.098Z,59.80
2019-03-12T23:09:46.813Z,59.20
2019-03-12T23:12:17.090Z,58.40
2019-03-12T23:14:47.988Z,58.30
2019-03-12T23:17:20.313Z,58.50
2019-03-12T23:19:50.098Z,59.10
2019-03-12T23:22:19.780Z,59.30
2019-03-12T23:24:49.586Z,59.40
2019-03-12T23:27:19.200Z,59.30
2019-03-12T23:29:49.032Z,59.20
2019-03-12T23:32:19.695Z,59.10
2019-03-12T23:34:49.410Z,58.80
2019-03-12T23:37:19.024Z,58.50
2019-03-12T23:39:48.668Z,58.20
2019-03-12T23:42:18.288Z,58.60
2019-03-12T23:44:47.933Z,58.70
2019-03-12T23:47:17.715Z,58.10
2019-03-12T23:49:47.348Z,58.20
2019-03-12T23:52:17.034Z,58.10
2019-03-12T23:54:47.144Z,58.10
2019-03-12T23:57:16.758Z,58.80
2019-03-12T23:59:46.403Z,57.50
